sensor_id;sensor_type;location;lat;lon;timestamp;P1;durP1;ratioP1;P2;durP2;ratioP2
3712;SDS011;1872;51.406;6.856;2023-04-06T00:01:58;16.73;;;11.37;;
3712;SDS011;1872;51.406;6.856;2023-04-06T00:04:24;16.73;;;11.33;;
3712;SDS011;1872;51.406;6.856;2023-04-06T00:06:50;14.00;;;10.67;;
3712;SDS011;1872;51.406;6.856;2023-04-06T00:09:15;15.23;;;11.67;;
3712;SDS011;1872;51.406;6.856;2023-04-06T00:11:41;15.33;;;11.20;;
3712;SDS011;1872;51.406;6.856;2023-04-06T00:14:07;15.60;;;10.37;;
3712;SDS011;1872;51.406;6.856;2023-04-06T00:16:32;15.27;;;10.97;;
3712;SDS011;1872;51.406;6.856;2023-04-06T00:18:58;18.80;;;11.53;;
3712;SDS011;1872;51.406;6.856;2023-04-06T00:21:24;17.37;;;11.90;;
3712;SDS011;1872;51.406;6.856;2023-04-06T00:23:50;15.97;;;10.93;;
3712;SDS011;1872;51.406;6.856;2023-04-06T00:26:16;16.27;;;11.57;;
3712;SDS011;1872;51.406;6.856;2023-04-06T00:28:42;16.10;;;11.53;;
3712;SDS011;1872;51.406;6.856;2023-04-06T00:31:07;17.10;;;11.93;;
3712;SDS011;1872;51.406;6.856;2023-04-06T00:33:33;15.10;;;10.60;;
3712;SDS011;1872;51.406;6.856;2023-04-06T00:35:59;14.40;;;10.87;;
3712;SDS011;1872;51.406;6.856;2023-04-06T00:38:24;13.30;;;11.10;;
3712;SDS011;1872;51.406;6.856;2023-04-06T00:40:51;14.47;;;11.47;;
3712;SDS011;1872;51.406;6.856;2023-04-06T00:43:16;14.17;;;11.20;;
3712;SDS011;1872;51.406;6.856;2023-04-06T00:45:42;12.70;;;9.50;;
3712;SDS011;1872;51.406;6.856;2023-04-06T00:48:08;16.47;;;10.77;;
3712;SDS011;1872;51.406;6.856;2023-04-06T00:50:34;17.37;;;11.70;;
3712;SDS011;1872;51.406;6.856;2023-04-06T00:53:00;15.57;;;11.40;;
3712;SDS011;1872;51.406;6.856;2023-04-06T00:55:26;16.43;;;11.43;;
3712;SDS011;1872;51.406;6.856;2023-04-06T00:57:52;15.97;;;11.30;;
3712;SDS011;1872;51.406;6.856;2023-04-06T01:00:18;16.10;;;11.07;;
3712;SDS011;1872;51.406;6.856;2023-04-06T01:02:44;17.70;;;12.43;;
3712;SDS011;1872;51.406;6.856;2023-04-06T01:05:11;15.67;;;11.10;;
3712;SDS011;1872;51.406;6.856;2023-04-06T01:07:37;16.50;;;11.30;;
3712;SDS011;1872;51.406;6.856;2023-04-06T01:10:02;15.67;;;10.73;;
3712;SDS011;1872;51.406;6.856;2023-04-06T01:12:29;16.90;;;11.77;;
3712;SDS011;1872;51.406;6.856;2023-04-06T01:14:55;15.93;;;10.20;;
3712;SDS011;1872;51.406;6.856;2023-04-06T01:17:21;16.50;;;11.77;;
3712;SDS011;1872;51.406;6.856;2023-04-06T01:19:47;14.10;;;10.40;;
3712;SDS011;1872;51.406;6.856;2023-04-06T01:22:17;14.87;;;11.10;;
3712;SDS011;1872;51.406;6.856;2023-04-06T01:24:43;14.27;;;11.00;;
3712;SDS011;1872;51.406;6.856;2023-04-06T01:27:09;18.23;;;11.10;;
3712;SDS011;1872;51.406;6.856;2023-04-06T01:29:35;14.17;;;10.13;;
3712;SDS011;1872;51.406;6.856;2023-04-06T01:32:09;14.93;;;11.00;;
3712;SDS011;1872;51.406;6.856;2023-04-06T01:34:35;17.63;;;12.40;;
3712;SDS011;1872;51.406;6.856;2023-04-06T01:37:00;17.17;;;11.97;;
3712;SDS011;1872;51.406;6.856;2023-04-06T01:39:26;17.30;;;12.20;;
3712;SDS011;1872;51.406;6.856;2023-04-06T01:41:52;17.13;;;12.77;;
3712;SDS011;1872;51.406;6.856;2023-04-06T01:44:18;16.47;;;11.83;;
3712;SDS011;1872;51.406;6.856;2023-04-06T01:46:44;15.83;;;11.93;;
3712;SDS011;1872;51.406;6.856;2023-04-06T01:49:10;20.90;;;12.03;;
3712;SDS011;1872;51.406;6.856;2023-04-06T01:51:36;18.57;;;12.20;;
3712;SDS011;1872;51.406;6.856;2023-04-06T01:54:02;16.30;;;12.70;;
3712;SDS011;1872;51.406;6.856;2023-04-06T01:56:28;17.33;;;12.37;;
3712;SDS011;1872;51.406;6.856;2023-04-06T01:58:53;16.57;;;12.37;;
3712;SDS011;1872;51.406;6.856;2023-04-06T02:01:20;17.33;;;11.60;;
3712;SDS011;1872;51.406;6.856;2023-04-06T02:03:46;16.77;;;12.03;;
3712;SDS011;1872;51.406;6.856;2023-04-06T02:06:11;20.90;;;13.00;;
3712;SDS011;1872;51.406;6.856;2023-04-06T02:08:37;17.10;;;12.73;;
3712;SDS011;1872;51.406;6.856;2023-04-06T02:11:03;14.97;;;11.90;;
3712;SDS011;1872;51.406;6.856;2023-04-06T02:13:28;21.60;;;14.83;;
3712;SDS011;1872;51.406;6.856;2023-04-06T02:15:54;19.00;;;13.63;;
3712;SDS011;1872;51.406;6.856;2023-04-06T02:18:20;20.90;;;14.77;;
3712;SDS011;1872;51.406;6.856;2023-04-06T02:20:46;27.63;;;16.70;;
3712;SDS011;1872;51.406;6.856;2023-04-06T02:23:12;29.97;;;17.10;;
3712;SDS011;1872;51.406;6.856;2023-04-06T02:25:38;24.33;;;15.93;;
3712;SDS011;1872;51.406;6.856;2023-04-06T02:28:05;29.27;;;16.17;;
3712;SDS011;1872;51.406;6.856;2023-04-06T02:30:30;24.13;;;16.30;;
3712;SDS011;1872;51.406;6.856;2023-04-06T02:32:57;27.63;;;16.40;;
3712;SDS011;1872;51.406;6.856;2023-04-06T02:35:27;27.50;;;17.33;;
3712;SDS011;1872;51.406;6.856;2023-04-06T02:37:56;26.97;;;17.47;;
3712;SDS011;1872;51.406;6.856;2023-04-06T02:40:22;25.97;;;16.57;;
3712;SDS011;1872;51.406;6.856;2023-04-06T02:42:47;23.60;;;17.00;;
3712;SDS011;1872;51.406;6.856;2023-04-06T02:45:13;26.73;;;17.30;;
3712;SDS011;1872;51.406;6.856;2023-04-06T02:47:39;23.33;;;15.33;;
3712;SDS011;1872;51.406;6.856;2023-04-06T02:50:05;25.53;;;16.27;;
3712;SDS011;1872;51.406;6.856;2023-04-06T02:52:31;23.53;;;15.60;;
3712;SDS011;1872;51.406;6.856;2023-04-06T02:54:57;24.83;;;16.90;;
3712;SDS011;1872;51.406;6.856;2023-04-06T02:57:23;31.17;;;19.63;;
3712;SDS011;1872;51.406;6.856;2023-04-06T02:59:48;34.83;;;16.80;;
3712;SDS011;1872;51.406;6.856;2023-04-06T03:02:14;22.93;;;15.20;;
3712;SDS011;1872;51.406;6.856;2023-04-06T03:04:41;23.40;;;15.90;;
3712;SDS011;1872;51.406;6.856;2023-04-06T03:07:07;19.67;;;14.67;;
3712;SDS011;1872;51.406;6.856;2023-04-06T03:09:33;23.60;;;15.90;;
3712;SDS011;1872;51.406;6.856;2023-04-06T03:12:01;19.73;;;13.73;;
3712;SDS011;1872;51.406;6.856;2023-04-06T03:14:27;22.23;;;14.67;;
3712;SDS011;1872;51.406;6.856;2023-04-06T03:16:53;21.43;;;14.80;;
3712;SDS011;1872;51.406;6.856;2023-04-06T03:19:19;20.63;;;13.47;;
3712;SDS011;1872;51.406;6.856;2023-04-06T03:21:44;23.27;;;14.80;;
3712;SDS011;1872;51.406;6.856;2023-04-06T03:24:10;20.03;;;14.23;;
3712;SDS011;1872;51.406;6.856;2023-04-06T03:26:37;21.73;;;14.23;;
3712;SDS011;1872;51.406;6.856;2023-04-06T03:29:03;18.83;;;15.03;;
3712;SDS011;1872;51.406;6.856;2023-04-06T03:31:29;21.13;;;15.30;;
3712;SDS011;1872;51.406;6.856;2023-04-06T03:33:55;22.03;;;14.70;;
3712;SDS011;1872;51.406;6.856;2023-04-06T03:36:21;16.73;;;13.73;;
3712;SDS011;1872;51.406;6.856;2023-04-06T03:38:46;19.83;;;14.03;;
3712;SDS011;1872;51.406;6.856;2023-04-06T03:41:12;21.10;;;14.00;;
3712;SDS011;1872;51.406;6.856;2023-04-06T03:43:38;19.30;;;13.10;;
3712;SDS011;1872;51.406;6.856;2023-04-06T03:46:03;17.83;;;13.07;;
3712;SDS011;1872;51.406;6.856;2023-04-06T03:48:29;18.80;;;13.13;;
3712;SDS011;1872;51.406;6.856;2023-04-06T03:50:55;22.10;;;13.43;;
3712;SDS011;1872;51.406;6.856;2023-04-06T03:53:21;23.03;;;14.50;;
3712;SDS011;1872;51.406;6.856;2023-04-06T03:55:46;18.50;;;12.67;;
3712;SDS011;1872;51.406;6.856;2023-04-06T03:58:14;21.77;;;13.97;;
3712;SDS011;1872;51.406;6.856;2023-04-06T04:00:48;21.97;;;14.20;;
3712;SDS011;1872;51.406;6.856;2023-04-06T04:03:13;18.00;;;12.47;;
3712;SDS011;1872;51.406;6.856;2023-04-06T04:05:39;18.97;;;12.80;;
3712;SDS011;1872;51.406;6.856;2023-04-06T04:08:05;21.20;;;13.10;;
3712;SDS011;1872;51.406;6.856;2023-04-06T04:10:30;18.97;;;13.13;;
3712;SDS011;1872;51.406;6.856;2023-04-06T04:12:56;19.80;;;12.50;;
3712;SDS011;1872;51.406;6.856;2023-04-06T04:15:22;19.77;;;13.13;;
3712;SDS011;1872;51.406;6.856;2023-04-06T04:17:48;21.00;;;12.87;;
3712;SDS011;1872;51.406;6.856;2023-04-06T04:20:15;19.40;;;13.60;;
3712;SDS011;1872;51.406;6.856;2023-04-06T04:22:41;19.70;;;14.20;;
3712;SDS011;1872;51.406;6.856;2023-04-06T04:25:07;19.73;;;13.87;;
3712;SDS011;1872;51.406;6.856;2023-04-06T04:27:34;17.57;;;13.00;;
3712;SDS011;1872;51.406;6.856;2023-04-06T04:30:00;18.03;;;12.20;;
3712;SDS011;1872;51.406;6.856;2023-04-06T04:32:25;20.20;;;13.70;;
3712;SDS011;1872;51.406;6.856;2023-04-06T04:34:54;21.40;;;14.80;;
3712;SDS011;1872;51.406;6.856;2023-04-06T04:37:20;25.00;;;16.77;;
3712;SDS011;1872;51.406;6.856;2023-04-06T04:39:46;28.17;;;18.60;;
3712;SDS011;1872;51.406;6.856;2023-04-06T04:42:11;25.60;;;18.07;;
3712;SDS011;1872;51.406;6.856;2023-04-06T04:44:40;28.90;;;18.00;;
3712;SDS011;1872;51.406;6.856;2023-04-06T04:47:06;24.90;;;17.27;;
3712;SDS011;1872;51.406;6.856;2023-04-06T04:49:31;27.33;;;17.53;;
3712;SDS011;1872;51.406;6.856;2023-04-06T04:51:57;22.80;;;15.90;;
3712;SDS011;1872;51.406;6.856;2023-04-06T04:54:23;22.37;;;15.83;;
3712;SDS011;1872;51.406;6.856;2023-04-06T04:56:48;18.43;;;14.20;;
3712;SDS011;1872;51.406;6.856;2023-04-06T04:59:15;23.07;;;15.00;;
3712;SDS011;1872;51.406;6.856;2023-04-06T05:01:41;18.20;;;12.07;;
3712;SDS011;1872;51.406;6.856;2023-04-06T05:04:07;17.20;;;12.20;;
3712;SDS011;1872;51.406;6.856;2023-04-06T05:06:32;16.23;;;11.80;;
3712;SDS011;1872;51.406;6.856;2023-04-06T05:08:58;18.70;;;13.77;;
3712;SDS011;1872;51.406;6.856;2023-04-06T05:11:24;18.50;;;12.50;;
3712;SDS011;1872;51.406;6.856;2023-04-06T05:13:50;16.83;;;11.30;;
3712;SDS011;1872;51.406;6.856;2023-04-06T05:16:16;16.33;;;12.07;;
3712;SDS011;1872;51.406;6.856;2023-04-06T05:18:41;18.37;;;12.30;;
3712;SDS011;1872;51.406;6.856;2023-04-06T05:21:07;18.83;;;12.00;;
3712;SDS011;1872;51.406;6.856;2023-04-06T05:23:33;17.80;;;11.17;;
3712;SDS011;1872;51.406;6.856;2023-04-06T05:25:59;16.40;;;11.97;;
3712;SDS011;1872;51.406;6.856;2023-04-06T05:28:27;17.57;;;12.03;;
3712;SDS011;1872;51.406;6.856;2023-04-06T05:30:52;13.27;;;10.30;;
3712;SDS011;1872;51.406;6.856;2023-04-06T05:33:21;19.37;;;12.77;;
3712;SDS011;1872;51.406;6.856;2023-04-06T05:35:48;16.43;;;10.57;;
3712;SDS011;1872;51.406;6.856;2023-04-06T05:38:13;16.27;;;10.93;;
3712;SDS011;1872;51.406;6.856;2023-04-06T05:40:39;20.97;;;12.53;;
3712;SDS011;1872;51.406;6.856;2023-04-06T05:43:06;19.20;;;11.47;;
3712;SDS011;1872;51.406;6.856;2023-04-06T05:45:32;14.77;;;11.10;;
3712;SDS011;1872;51.406;6.856;2023-04-06T05:47:58;14.40;;;9.90;;
3712;SDS011;1872;51.406;6.856;2023-04-06T05:50:24;13.83;;;11.60;;
3712;SDS011;1872;51.406;6.856;2023-04-06T05:52:50;14.27;;;10.40;;
3712;SDS011;1872;51.406;6.856;2023-04-06T05:55:16;15.53;;;10.63;;
3712;SDS011;1872;51.406;6.856;2023-04-06T05:57:41;15.13;;;10.67;;
3712;SDS011;1872;51.406;6.856;2023-04-06T06:00:07;15.47;;;11.77;;
3712;SDS011;1872;51.406;6.856;2023-04-06T06:02:34;16.70;;;10.37;;
3712;SDS011;1872;51.406;6.856;2023-04-06T06:05:00;14.13;;;11.20;;
3712;SDS011;1872;51.406;6.856;2023-04-06T06:07:26;13.17;;;10.80;;
3712;SDS011;1872;51.406;6.856;2023-04-06T06:09:51;15.63;;;11.17;;
3712;SDS011;1872;51.406;6.856;2023-04-06T06:12:17;17.30;;;11.90;;
3712;SDS011;1872;51.406;6.856;2023-04-06T06:14:43;15.37;;;11.13;;
3712;SDS011;1872;51.406;6.856;2023-04-06T06:17:08;12.80;;;10.30;;
3712;SDS011;1872;51.406;6.856;2023-04-06T06:19:34;20.13;;;10.77;;
3712;SDS011;1872;51.406;6.856;2023-04-06T06:22:00;21.73;;;12.30;;
3712;SDS011;1872;51.406;6.856;2023-04-06T06:24:27;12.53;;;9.63;;
3712;SDS011;1872;51.406;6.856;2023-04-06T06:26:53;15.13;;;11.03;;
3712;SDS011;1872;51.406;6.856;2023-04-06T06:29:19;13.57;;;9.57;;
3712;SDS011;1872;51.406;6.856;2023-04-06T06:31:44;15.43;;;9.70;;
3712;SDS011;1872;51.406;6.856;2023-04-06T06:34:10;16.90;;;10.70;;
3712;SDS011;1872;51.406;6.856;2023-04-06T06:36:37;13.87;;;10.17;;
3712;SDS011;1872;51.406;6.856;2023-04-06T06:39:03;14.40;;;11.10;;
3712;SDS011;1872;51.406;6.856;2023-04-06T06:41:29;16.93;;;11.93;;
3712;SDS011;1872;51.406;6.856;2023-04-06T06:43:54;12.00;;;10.03;;
3712;SDS011;1872;51.406;6.856;2023-04-06T06:46:20;13.07;;;10.07;;
3712;SDS011;1872;51.406;6.856;2023-04-06T06:48:46;13.63;;;10.50;;
3712;SDS011;1872;51.406;6.856;2023-04-06T06:51:12;15.03;;;10.50;;
3712;SDS011;1872;51.406;6.856;2023-04-06T06:53:37;11.10;;;9.53;;
3712;SDS011;1872;51.406;6.856;2023-04-06T06:56:03;13.97;;;10.70;;
3712;SDS011;1872;51.406;6.856;2023-04-06T06:58:29;13.50;;;11.37;;
3712;SDS011;1872;51.406;6.856;2023-04-06T07:00:57;11.73;;;9.60;;
3712;SDS011;1872;51.406;6.856;2023-04-06T07:03:24;14.20;;;10.83;;
3712;SDS011;1872;51.406;6.856;2023-04-06T07:05:50;14.07;;;10.87;;
3712;SDS011;1872;51.406;6.856;2023-04-06T07:08:23;13.37;;;10.60;;
3712;SDS011;1872;51.406;6.856;2023-04-06T07:10:52;11.87;;;9.47;;
3712;SDS011;1872;51.406;6.856;2023-04-06T07:13:18;12.37;;;10.23;;
3712;SDS011;1872;51.406;6.856;2023-04-06T07:15:48;12.73;;;10.50;;
3712;SDS011;1872;51.406;6.856;2023-04-06T07:18:14;12.80;;;10.20;;
3712;SDS011;1872;51.406;6.856;2023-04-06T07:20:40;12.13;;;10.20;;
3712;SDS011;1872;51.406;6.856;2023-04-06T07:23:06;15.40;;;11.00;;
3712;SDS011;1872;51.406;6.856;2023-04-06T07:25:32;12.23;;;10.30;;
3712;SDS011;1872;51.406;6.856;2023-04-06T07:27:58;11.93;;;10.40;;
3712;SDS011;1872;51.406;6.856;2023-04-06T07:30:24;13.13;;;10.27;;
3712;SDS011;1872;51.406;6.856;2023-04-06T07:32:53;11.87;;;10.50;;
3712;SDS011;1872;51.406;6.856;2023-04-06T07:35:24;11.57;;;10.00;;
3712;SDS011;1872;51.406;6.856;2023-04-06T07:37:51;12.73;;;10.20;;
3712;SDS011;1872;51.406;6.856;2023-04-06T07:40:19;12.70;;;11.20;;
3712;SDS011;1872;51.406;6.856;2023-04-06T07:42:45;12.83;;;10.40;;
3712;SDS011;1872;51.406;6.856;2023-04-06T07:45:11;14.77;;;11.10;;
3712;SDS011;1872;51.406;6.856;2023-04-06T07:47:37;11.10;;;10.00;;
3712;SDS011;1872;51.406;6.856;2023-04-06T07:50:03;12.83;;;10.53;;
3712;SDS011;1872;51.406;6.856;2023-04-06T07:52:29;13.80;;;10.60;;
3712;SDS011;1872;51.406;6.856;2023-04-06T07:54:57;12.83;;;11.13;;
3712;SDS011;1872;51.406;6.856;2023-04-06T07:57:23;13.13;;;10.80;;
3712;SDS011;1872;51.406;6.856;2023-04-06T07:59:48;14.37;;;10.57;;
3712;SDS011;1872;51.406;6.856;2023-04-06T08:02:14;12.03;;;9.70;;
3712;SDS011;1872;51.406;6.856;2023-04-06T08:04:40;14.07;;;10.83;;
3712;SDS011;1872;51.406;6.856;2023-04-06T08:07:06;12.67;;;10.40;;
3712;SDS011;1872;51.406;6.856;2023-04-06T08:09:31;13.00;;;11.20;;
3712;SDS011;1872;51.406;6.856;2023-04-06T08:11:57;12.90;;;10.70;;
3712;SDS011;1872;51.406;6.856;2023-04-06T08:14:23;13.10;;;10.17;;
3712;SDS011;1872;51.406;6.856;2023-04-06T08:16:51;12.57;;;9.80;;
3712;SDS011;1872;51.406;6.856;2023-04-06T08:19:17;14.37;;;10.93;;
3712;SDS011;1872;51.406;6.856;2023-04-06T08:21:44;11.73;;;10.53;;
3712;SDS011;1872;51.406;6.856;2023-04-06T08:24:11;11.90;;;10.70;;
3712;SDS011;1872;51.406;6.856;2023-04-06T08:26:37;16.90;;;11.87;;
3712;SDS011;1872;51.406;6.856;2023-04-06T08:29:03;14.20;;;10.87;;
3712;SDS011;1872;51.406;6.856;2023-04-06T08:31:29;12.63;;;10.77;;
3712;SDS011;1872;51.406;6.856;2023-04-06T08:33:55;14.00;;;10.80;;
3712;SDS011;1872;51.406;6.856;2023-04-06T08:36:21;13.80;;;11.50;;
3712;SDS011;1872;51.406;6.856;2023-04-06T08:38:48;14.47;;;10.40;;
3712;SDS011;1872;51.406;6.856;2023-04-06T08:41:14;14.83;;;10.40;;
3712;SDS011;1872;51.406;6.856;2023-04-06T08:43:46;12.17;;;10.33;;
3712;SDS011;1872;51.406;6.856;2023-04-06T08:46:13;14.20;;;11.60;;
3712;SDS011;1872;51.406;6.856;2023-04-06T08:48:42;15.00;;;11.50;;
3712;SDS011;1872;51.406;6.856;2023-04-06T08:51:09;14.30;;;12.07;;
3712;SDS011;1872;51.406;6.856;2023-04-06T08:53:35;16.43;;;11.60;;
3712;SDS011;1872;51.406;6.856;2023-04-06T08:56:01;13.73;;;10.90;;
3712;SDS011;1872;51.406;6.856;2023-04-06T08:58:36;20.43;;;13.13;;
3712;SDS011;1872;51.406;6.856;2023-04-06T09:01:08;13.67;;;11.27;;
3712;SDS011;1872;51.406;6.856;2023-04-06T09:03:38;16.37;;;11.20;;
3712;SDS011;1872;51.406;6.856;2023-04-06T09:06:05;15.67;;;10.63;;
3712;SDS011;1872;51.406;6.856;2023-04-06T09:08:35;15.60;;;11.20;;
3712;SDS011;1872;51.406;6.856;2023-04-06T09:11:03;16.43;;;11.50;;
3712;SDS011;1872;51.406;6.856;2023-04-06T09:13:29;14.37;;;11.77;;
3712;SDS011;1872;51.406;6.856;2023-04-06T09:16:01;14.00;;;11.90;;
3712;SDS011;1872;51.406;6.856;2023-04-06T09:18:32;19.40;;;10.70;;
3712;SDS011;1872;51.406;6.856;2023-04-06T09:23:28;16.67;;;12.00;;
3712;SDS011;1872;51.406;6.856;2023-04-06T09:28:49;14.70;;;11.20;;
3712;SDS011;1872;51.406;6.856;2023-04-06T09:31:25;16.70;;;12.00;;
3712;SDS011;1872;51.406;6.856;2023-04-06T09:33:55;14.33;;;11.67;;
3712;SDS011;1872;51.406;6.856;2023-04-06T09:36:31;16.67;;;11.87;;
3712;SDS011;1872;51.406;6.856;2023-04-06T09:39:03;15.73;;;12.10;;
3712;SDS011;1872;51.406;6.856;2023-04-06T09:41:31;14.07;;;11.10;;
3712;SDS011;1872;51.406;6.856;2023-04-06T09:46:37;20.23;;;12.30;;
3712;SDS011;1872;51.406;6.856;2023-04-06T09:49:04;17.80;;;12.87;;
3712;SDS011;1872;51.406;6.856;2023-04-06T09:51:31;17.47;;;12.50;;
3712;SDS011;1872;51.406;6.856;2023-04-06T09:54:06;16.60;;;11.93;;
3712;SDS011;1872;51.406;6.856;2023-04-06T10:02:45;20.37;;;12.07;;
3712;SDS011;1872;51.406;6.856;2023-04-06T10:08:24;17.00;;;12.33;;
3712;SDS011;1872;51.406;6.856;2023-04-06T10:10:53;19.33;;;12.63;;
3712;SDS011;1872;51.406;6.856;2023-04-06T10:13:22;17.43;;;12.70;;
3712;SDS011;1872;51.406;6.856;2023-04-06T10:15:49;15.70;;;11.70;;
3712;SDS011;1872;51.406;6.856;2023-04-06T10:18:16;17.53;;;12.07;;
3712;SDS011;1872;51.406;6.856;2023-04-06T10:23:24;14.93;;;10.97;;
3712;SDS011;1872;51.406;6.856;2023-04-06T10:26:04;18.40;;;12.50;;
3712;SDS011;1872;51.406;6.856;2023-04-06T10:28:31;19.60;;;13.07;;
3712;SDS011;1872;51.406;6.856;2023-04-06T10:31:00;16.37;;;11.97;;
3712;SDS011;1872;51.406;6.856;2023-04-06T10:33:29;16.77;;;11.70;;
3712;SDS011;1872;51.406;6.856;2023-04-06T10:35:55;16.50;;;11.90;;
3712;SDS011;1872;51.406;6.856;2023-04-06T10:38:43;20.20;;;12.30;;
3712;SDS011;1872;51.406;6.856;2023-04-06T10:41:09;17.10;;;11.27;;
3712;SDS011;1872;51.406;6.856;2023-04-06T10:43:36;18.43;;;12.93;;
3712;SDS011;1872;51.406;6.856;2023-04-06T10:46:04;21.57;;;12.40;;
3712;SDS011;1872;51.406;6.856;2023-04-06T10:48:41;20.00;;;13.40;;
3712;SDS011;1872;51.406;6.856;2023-04-06T10:51:17;17.47;;;13.43;;
3712;SDS011;1872;51.406;6.856;2023-04-06T10:53:47;15.00;;;10.87;;
3712;SDS011;1872;51.406;6.856;2023-04-06T10:56:14;16.77;;;10.80;;
3712;SDS011;1872;51.406;6.856;2023-04-06T10:58:44;17.83;;;12.10;;
3712;SDS011;1872;51.406;6.856;2023-04-06T11:01:17;19.00;;;11.87;;
3712;SDS011;1872;51.406;6.856;2023-04-06T11:03:45;16.23;;;12.60;;
3712;SDS011;1872;51.406;6.856;2023-04-06T11:06:21;16.17;;;10.90;;
3712;SDS011;1872;51.406;6.856;2023-04-06T11:08:48;17.87;;;11.47;;
3712;SDS011;1872;51.406;6.856;2023-04-06T11:11:16;22.30;;;12.20;;
3712;SDS011;1872;51.406;6.856;2023-04-06T11:13:50;19.93;;;13.33;;
3712;SDS011;1872;51.406;6.856;2023-04-06T11:16:21;16.30;;;12.47;;
3712;SDS011;1872;51.406;6.856;2023-04-06T11:18:58;15.30;;;10.30;;
3712;SDS011;1872;51.406;6.856;2023-04-06T11:21:36;17.70;;;12.40;;
3712;SDS011;1872;51.406;6.856;2023-04-06T11:24:11;27.10;;;13.47;;
3712;SDS011;1872;51.406;6.856;2023-04-06T11:26:42;23.70;;;13.30;;
3712;SDS011;1872;51.406;6.856;2023-04-06T11:29:09;18.77;;;12.23;;
3712;SDS011;1872;51.406;6.856;2023-04-06T11:31:39;18.50;;;12.73;;
3712;SDS011;1872;51.406;6.856;2023-04-06T11:34:09;19.40;;;12.20;;
3712;SDS011;1872;51.406;6.856;2023-04-06T11:36:36;16.83;;;12.60;;
3712;SDS011;1872;51.406;6.856;2023-04-06T11:39:06;21.93;;;13.97;;
3712;SDS011;1872;51.406;6.856;2023-04-06T11:41:32;16.87;;;12.77;;
3712;SDS011;1872;51.406;6.856;2023-04-06T11:43:58;18.23;;;12.77;;
3712;SDS011;1872;51.406;6.856;2023-04-06T11:46:27;20.97;;;13.67;;
3712;SDS011;1872;51.406;6.856;2023-04-06T11:48:57;18.83;;;13.23;;
3712;SDS011;1872;51.406;6.856;2023-04-06T11:51:35;20.33;;;14.27;;
3712;SDS011;1872;51.406;6.856;2023-04-06T11:54:01;20.53;;;13.90;;
3712;SDS011;1872;51.406;6.856;2023-04-06T11:56:30;24.33;;;14.80;;
3712;SDS011;1872;51.406;6.856;2023-04-06T11:58:56;18.70;;;12.87;;
3712;SDS011;1872;51.406;6.856;2023-04-06T12:01:23;19.80;;;14.40;;
3712;SDS011;1872;51.406;6.856;2023-04-06T12:03:50;20.37;;;14.53;;
3712;SDS011;1872;51.406;6.856;2023-04-06T12:06:16;19.23;;;15.03;;
3712;SDS011;1872;51.406;6.856;2023-04-06T12:08:42;21.73;;;14.40;;
3712;SDS011;1872;51.406;6.856;2023-04-06T12:11:09;22.03;;;16.63;;
3712;SDS011;1872;51.406;6.856;2023-04-06T12:13:35;21.37;;;15.23;;
3712;SDS011;1872;51.406;6.856;2023-04-06T12:16:01;20.57;;;14.20;;
3712;SDS011;1872;51.406;6.856;2023-04-06T12:18:27;20.03;;;14.00;;
3712;SDS011;1872;51.406;6.856;2023-04-06T12:20:52;21.00;;;15.00;;
3712;SDS011;1872;51.406;6.856;2023-04-06T12:23:18;27.20;;;15.70;;
3712;SDS011;1872;51.406;6.856;2023-04-06T12:25:45;18.63;;;13.10;;
3712;SDS011;1872;51.406;6.856;2023-04-06T12:28:11;20.53;;;14.23;;
3712;SDS011;1872;51.406;6.856;2023-04-06T12:30:38;20.90;;;14.80;;
3712;SDS011;1872;51.406;6.856;2023-04-06T12:33:06;17.03;;;12.40;;
3712;SDS011;1872;51.406;6.856;2023-04-06T12:35:34;20.50;;;12.93;;
3712;SDS011;1872;51.406;6.856;2023-04-06T12:38:01;18.60;;;13.60;;
3712;SDS011;1872;51.406;6.856;2023-04-06T12:40:29;19.70;;;13.40;;
3712;SDS011;1872;51.406;6.856;2023-04-06T12:42:55;18.50;;;13.27;;
3712;SDS011;1872;51.406;6.856;2023-04-06T12:45:21;23.40;;;13.80;;
3712;SDS011;1872;51.406;6.856;2023-04-06T12:47:46;19.87;;;12.10;;
3712;SDS011;1872;51.406;6.856;2023-04-06T12:50:12;17.33;;;12.77;;
3712;SDS011;1872;51.406;6.856;2023-04-06T12:52:38;16.30;;;11.30;;
3712;SDS011;1872;51.406;6.856;2023-04-06T12:55:03;15.30;;;11.93;;
3712;SDS011;1872;51.406;6.856;2023-04-06T12:57:31;18.20;;;13.27;;
3712;SDS011;1872;51.406;6.856;2023-04-06T12:59:56;17.30;;;12.90;;
3712;SDS011;1872;51.406;6.856;2023-04-06T13:02:29;15.43;;;11.80;;
3712;SDS011;1872;51.406;6.856;2023-04-06T13:04:55;17.80;;;11.40;;
3712;SDS011;1872;51.406;6.856;2023-04-06T13:07:21;13.70;;;10.50;;
3712;SDS011;1872;51.406;6.856;2023-04-06T13:09:47;11.80;;;9.63;;
3712;SDS011;1872;51.406;6.856;2023-04-06T13:12:14;14.17;;;10.90;;
3712;SDS011;1872;51.406;6.856;2023-04-06T13:14:40;13.03;;;10.33;;
3712;SDS011;1872;51.406;6.856;2023-04-06T13:17:06;10.87;;;9.13;;
3712;SDS011;1872;51.406;6.856;2023-04-06T13:19:32;11.83;;;9.23;;
3712;SDS011;1872;51.406;6.856;2023-04-06T13:21:58;15.43;;;9.80;;
3712;SDS011;1872;51.406;6.856;2023-04-06T13:24:23;16.10;;;10.10;;
3712;SDS011;1872;51.406;6.856;2023-04-06T13:26:49;13.60;;;9.10;;
3712;SDS011;1872;51.406;6.856;2023-04-06T13:29:15;12.50;;;9.70;;
3712;SDS011;1872;51.406;6.856;2023-04-06T13:31:41;11.37;;;9.23;;
3712;SDS011;1872;51.406;6.856;2023-04-06T13:34:09;11.47;;;9.27;;
3712;SDS011;1872;51.406;6.856;2023-04-06T13:36:35;12.43;;;8.70;;
3712;SDS011;1872;51.406;6.856;2023-04-06T13:39:01;10.77;;;8.37;;
3712;SDS011;1872;51.406;6.856;2023-04-06T13:41:26;11.27;;;9.00;;
3712;SDS011;1872;51.406;6.856;2023-04-06T13:43:55;10.50;;;8.57;;
3712;SDS011;1872;51.406;6.856;2023-04-06T13:46:23;13.33;;;9.90;;
3712;SDS011;1872;51.406;6.856;2023-04-06T13:48:51;10.87;;;9.63;;
3712;SDS011;1872;51.406;6.856;2023-04-06T13:51:16;10.97;;;8.97;;
3712;SDS011;1872;51.406;6.856;2023-04-06T13:53:42;10.23;;;8.93;;
3712;SDS011;1872;51.406;6.856;2023-04-06T13:56:08;13.60;;;10.67;;
3712;SDS011;1872;51.406;6.856;2023-04-06T13:58:40;13.67;;;9.50;;
3712;SDS011;1872;51.406;6.856;2023-04-06T14:01:06;10.00;;;8.43;;
3712;SDS011;1872;51.406;6.856;2023-04-06T14:03:35;12.23;;;8.77;;
3712;SDS011;1872;51.406;6.856;2023-04-06T14:06:08;12.37;;;9.43;;
3712;SDS011;1872;51.406;6.856;2023-04-06T14:08:35;11.90;;;8.50;;
3712;SDS011;1872;51.406;6.856;2023-04-06T14:11:01;12.80;;;9.30;;
3712;SDS011;1872;51.406;6.856;2023-04-06T14:13:26;13.57;;;10.30;;
3712;SDS011;1872;51.406;6.856;2023-04-06T14:15:53;12.77;;;10.30;;
3712;SDS011;1872;51.406;6.856;2023-04-06T14:18:20;13.07;;;10.10;;
3712;SDS011;1872;51.406;6.856;2023-04-06T14:20:53;14.87;;;10.70;;
3712;SDS011;1872;51.406;6.856;2023-04-06T14:23:27;12.47;;;10.10;;
3712;SDS011;1872;51.406;6.856;2023-04-06T14:26:06;16.80;;;11.23;;
3712;SDS011;1872;51.406;6.856;2023-04-06T14:28:34;12.20;;;10.17;;
3712;SDS011;1872;51.406;6.856;2023-04-06T14:31:01;12.50;;;10.20;;
3712;SDS011;1872;51.406;6.856;2023-04-06T14:33:30;15.07;;;10.93;;
3712;SDS011;1872;51.406;6.856;2023-04-06T14:35:56;12.60;;;9.77;;
3712;SDS011;1872;51.406;6.856;2023-04-06T14:38:22;13.33;;;9.00;;
3712;SDS011;1872;51.406;6.856;2023-04-06T14:40:48;11.73;;;9.97;;
3712;SDS011;1872;51.406;6.856;2023-04-06T14:43:13;12.77;;;9.53;;
3712;SDS011;1872;51.406;6.856;2023-04-06T14:45:40;13.93;;;10.37;;
3712;SDS011;1872;51.406;6.856;2023-04-06T14:48:05;14.17;;;9.80;;
3712;SDS011;1872;51.406;6.856;2023-04-06T14:50:32;11.47;;;9.60;;
3712;SDS011;1872;51.406;6.856;2023-04-06T14:52:58;11.70;;;9.00;;
3712;SDS011;1872;51.406;6.856;2023-04-06T14:55:25;10.97;;;9.00;;
3712;SDS011;1872;51.406;6.856;2023-04-06T14:57:50;14.40;;;10.03;;
3712;SDS011;1872;51.406;6.856;2023-04-06T15:00:16;12.10;;;9.20;;
3712;SDS011;1872;51.406;6.856;2023-04-06T15:02:42;9.83;;;8.83;;
3712;SDS011;1872;51.406;6.856;2023-04-06T15:05:13;13.60;;;8.90;;
3712;SDS011;1872;51.406;6.856;2023-04-06T15:07:39;10.87;;;8.90;;
3712;SDS011;1872;51.406;6.856;2023-04-06T15:10:05;11.73;;;9.27;;